Marstein — LAQN — position and weather

sailwx.info

Track history (hours):
 
Tides and Currents Weather Stations Pressure Air Temp Water Temp Dewpoint Dewpoint Depression Visibility Wind Speed Wind Dir Waves Ship Positions

Marstein

Last reported at 2016-May-29 19:25 UTC. Time now 2016-Jun-01 07:27 UTC.
Position N 60°10' E 005°31'.

Length 87 m; draft 4.7 m.

Type: Passenger vessel. MMSI: 257317400.

Date/timePositionNaut miles runAvg speedWind from/ knotsBaromVisibWave heightAir tempDewpointWater temp
2016-May-29 19:25N 60°10' E 005°31'1010.9
2016-May-29 18:33N 60°08' E 005°12'4 4.0
2016-May-29 17:33N 60°11' E 005°17'2 2.1
2016-May-29 16:33N 60°13' E 005°18'5 4.9
2016-May-29 15:33N 60°08' E 005°15'1 0.7
2016-May-29 14:33N 60°09' E 005°16'5 4.3
2016-May-29 13:30N 60°13' E 005°17'7 7.0
2016-May-29 12:33N 60°07' E 005°12'7 6.4
2016-May-29 11:31N 60°13' E 005°17'3 3.2
2016-May-29 10:34N 60°10' E 005°16'4 3.6
2016-May-29 09:34N 60°07' E 005°12'4 3.7
2016-May-29 08:34N 60°10' E 005°16'3 2.9
2016-May-29 07:31N 60°13' E 005°17'5 4.8
2016-May-29 06:33N 60°09' E 005°15'1 0.8
2016-May-29 05:33N 60°08' E 005°14'1 1.4
2016-May-29 04:33N 60°07' E 005°12'0 0.0
2016-May-29 03:33N 60°07' E 005°12'0 0.0
2016-May-29 02:33N 60°07' E 005°12'0 0.0
2016-May-29 01:33N 60°07' E 005°12'0 0.0
2016-May-29 00:33N 60°07' E 005°12'0 0.0
2016-May-28 23:33N 60°07' E 005°12'4 4.2
2016-May-28 22:34N 60°11' E 005°17'2 2.2
2016-May-28 21:26N 60°13' E 005°17'6 6.6
2016-May-28 20:34N 60°08' E 005°13'1 0.8
2016-May-28 19:34N 60°08' E 005°15'4 3.9
2016-May-28 18:34N 60°12' E 005°18'0 0.4
2016-May-28 17:34N 60°12' E 005°18'5 4.6
2016-May-28 16:33N 60°08' E 005°14'1 0.6
2016-May-28 15:33N 60°09' E 005°15'5 4.9
2016-May-28 14:33N 60°13' E 005°18'3 2.8
2016-May-28 13:33N 60°11' E 005°16'4 3.8
2016-May-28 12:33N 60°07' E 005°12'4 4.3
2016-May-28 11:33N 60°11' E 005°17'2 1.6
2016-May-28 10:33N 60°13' E 005°18'6 5.8
2016-May-28 09:33N 60°08' E 005°12'3 2.9
2016-May-28 08:34N 60°10' E 005°16'4 3.5
2016-May-28 07:29N 60°13' E 005°18'5 4.9
2016-May-28 06:33N 60°09' E 005°15'1 0.9
2016-May-28 05:33N 60°08' E 005°14'6 5.5
2016-May-28 04:33N 60°13' E 005°17'7 6.6
2016-May-28 03:33N 60°07' E 005°12'0 0.0
2016-May-28 02:33N 60°07' E 005°12'0 0.0
2016-May-28 01:33N 60°07' E 005°12'0 0.0
2016-May-28 00:33N 60°07' E 005°12'0 0.0
2016-May-27 23:33N 60°07' E 005°12'4 4.5
2016-May-27 22:33N 60°11' E 005°17'2 1.6
2016-May-27 21:16N 60°13' E 005°18'6 9.1
2016-May-27 20:33N 60°08' E 005°12'5 5.2
2016-May-27 19:34N 60°12' E 005°18'0 0.1
2016-May-27 18:34N 60°12' E 005°17'5 5.1
2016-May-27 17:33N 60°07' E 005°12'6 6.4
2016-May-27 16:33N 60°13' E 005°18'5 4.8
2016-May-27 15:33N 60°09' E 005°15'1 0.9
2016-May-27 14:33N 60°09' E 005°16'4 3.6
2016-May-27 13:25N 60°13' E 005°18'4 4.7
2016-May-27 12:33N 60°09' E 005°15'1 1.2
2016-May-27 11:33N 60°08' E 005°14'3 2.7
2016-May-27 10:33N 60°06' E 005°11'0 0.0
2016-May-27 09:33N 60°06' E 005°11'0 0.0
2016-May-27 08:33N 60°06' E 005°11'1 1.3
2016-May-27 07:33N 60°07' E 005°12'4 4.0
2016-May-27 06:33N 60°11' E 005°17'2 1.8
2016-May-27 05:33N 60°12' E 005°18'6 5.7
2016-May-27 04:33N 60°07' E 005°12'1 1.3
2016-May-27 03:33N 60°06' E 005°11'0 0.0
2016-May-27 02:33N 60°06' E 005°11'0 0.0
2016-May-27 01:33N 60°06' E 005°11'0 0.0
2016-May-27 00:33N 60°06' E 005°11'0 0.0
2016-May-26 23:24N 60°06' E 005°11'0 0.0
2016-May-26 22:24N 60°06' E 005°11'0 0.0
2016-May-26 21:27N 60°06' E 005°11'0 0.0
2016-May-26 20:33N 60°06' E 005°11'0 0.0
2016-May-26 19:27N 60°06' E 005°11'0 0.0
2016-May-26 18:30N 60°06' E 005°11'0 0.0
2016-May-26 17:30N 60°06' E 005°11'8 8.0
2016-May-26 16:31N 60°13' E 005°17'5 5.5
2016-May-26 15:33N 60°08' E 005°14'1 1.0
2016-May-26 14:33N 60°09' E 005°16'5 4.2
2016-May-26 13:29N 60°13' E 005°17'4 4.7
2016-May-26 12:33N 60°09' E 005°15'1 1.5
2016-May-26 11:33N 60°08' E 005°13'2 2.2
2016-May-26 10:33N 60°06' E 005°11'0 0.0
2016-May-26 09:33N 60°06' E 005°11'0 0.0
2016-May-26 08:33N 60°06' E 005°11'1 1.3
2016-May-26 07:33N 60°07' E 005°12'4 4.1
2016-May-26 06:33N 60°11' E 005°17'2 1.6
2016-May-26 05:33N 60°12' E 005°18'6 5.7
2016-May-26 04:33N 60°07' E 005°12'1 1.2
2016-May-26 03:31N 60°06' E 005°11'0 0.0
2016-May-26 02:28N 60°06' E 005°11'0 0.0
2016-May-26 01:28N 60°06' E 005°11'0 0.0
2016-May-26 00:28N 60°06' E 005°11'0 0.0
2016-May-25 23:28N 60°06' E 005°11'0 0.0
2016-May-25 22:31N 60°06' E 005°11'0 0.0
2016-May-25 21:31N 60°06' E 005°11'0 0.0
2016-May-25 20:31N 60°06' E 005°11'0 0.0
2016-May-25 19:31N 60°06' E 005°11'0 0.0
2016-May-25 18:31N 60°06' E 005°11'0 0.0
2016-May-25 17:31N 60°06' E 005°11'8 8.0
2016-May-25 16:33N 60°13' E 005°18'5 5.2
2016-May-25 15:33N 60°08' E 005°14'1 1.0
2016-May-25 14:33N 60°09' E 005°16'5 4.3
2016-May-25 13:31N 60°13' E 005°17'4 4.6
2016-May-25 12:33N 60°09' E 005°15'1 1.3
2016-May-25 11:33N 60°08' E 005°14'2 2.4
2016-May-25 10:33N 60°06' E 005°11'0 0.0
2016-May-25 09:33N 60°06' E 005°11'0 0.0
2016-May-25 08:33N 60°06' E 005°11'1 1.3
2016-May-25 07:33N 60°07' E 005°12'4 4.0
2016-May-25 06:33N 60°11' E 005°17'2 1.6
2016-May-25 05:33N 60°12' E 005°17'6 5.6
2016-May-25 04:33N 60°07' E 005°12'1 1.2
2016-May-25 03:32N 60°06' E 005°11'0 0.0
2016-May-25 02:32N 60°06' E 005°11'0 0.0
2016-May-25 01:32N 60°06' E 005°11'0 0.0
2016-May-25 00:32N 60°06' E 005°11'0 0.0
2016-May-24 23:32N 60°06' E 005°11'0 0.0
2016-May-24 22:32N 60°06' E 005°11'0 0.0
2016-May-24 21:23N 60°06' E 005°11'0 0.0
2016-May-24 20:26N 60°06' E 005°11'0 0.0
2016-May-24 19:26N 60°06' E 005°11'0 0.0
2016-May-24 18:26N 60°06' E 005°11'0 0.0
2016-May-24 17:26N 60°06' E 005°11'8 8.7
2016-May-24 16:33N 60°13' E 005°18'5 5.3
2016-May-24 15:33N 60°08' E 005°14'  
Track history (hours):
 
Tides and Currents Weather Stations Pressure Air Temp Water Temp Dewpoint Dewpoint Depression Visibility Wind Speed Wind Dir Waves Ship Positions

Marstein

Last reported at 2016-May-29 19:25 UTC. Time now 2016-Jun-01 07:27 UTC.
Position N 60°10' E 005°31'.

Length 87 m; draft 4.7 m.

Type: Passenger vessel. MMSI: 257317400.

Date/timePositionNaut miles runAvg speedWind from/ knotsBaromVisibWave heightAir tempDewpointWater temp
2016-May-29 19:25N 60°10' E 005°31'1010.9
2016-May-29 18:33N 60°08' E 005°12'4 4.0
2016-May-29 17:33N 60°11' E 005°17'2 2.1
2016-May-29 16:33N 60°13' E 005°18'5 4.9
2016-May-29 15:33N 60°08' E 005°15'1 0.7
2016-May-29 14:33N 60°09' E 005°16'5 4.3
2016-May-29 13:30N 60°13' E 005°17'7 7.0
2016-May-29 12:33N 60°07' E 005°12'7 6.4
2016-May-29 11:31N 60°13' E 005°17'3 3.2
2016-May-29 10:34N 60°10' E 005°16'4 3.6
2016-May-29 09:34N 60°07' E 005°12'4 3.7
2016-May-29 08:34N 60°10' E 005°16'3 2.9
2016-May-29 07:31N 60°13' E 005°17'5 4.8
2016-May-29 06:33N 60°09' E 005°15'1 0.8
2016-May-29 05:33N 60°08' E 005°14'1 1.4
2016-May-29 04:33N 60°07' E 005°12'0 0.0
2016-May-29 03:33N 60°07' E 005°12'0 0.0
2016-May-29 02:33N 60°07' E 005°12'0 0.0
2016-May-29 01:33N 60°07' E 005°12'0 0.0
2016-May-29 00:33N 60°07' E 005°12'0 0.0
2016-May-28 23:33N 60°07' E 005°12'4 4.2
2016-May-28 22:34N 60°11' E 005°17'2 2.2
2016-May-28 21:26N 60°13' E 005°17'6 6.6
2016-May-28 20:34N 60°08' E 005°13'1 0.8
2016-May-28 19:34N 60°08' E 005°15'4 3.9
2016-May-28 18:34N 60°12' E 005°18'0 0.4
2016-May-28 17:34N 60°12' E 005°18'5 4.6
2016-May-28 16:33N 60°08' E 005°14'1 0.6
2016-May-28 15:33N 60°09' E 005°15'5 4.9
2016-May-28 14:33N 60°13' E 005°18'3 2.8
2016-May-28 13:33N 60°11' E 005°16'4 3.8
2016-May-28 12:33N 60°07' E 005°12'4 4.3
2016-May-28 11:33N 60°11' E 005°17'2 1.6
2016-May-28 10:33N 60°13' E 005°18'6 5.8
2016-May-28 09:33N 60°08' E 005°12'3 2.9
2016-May-28 08:34N 60°10' E 005°16'4 3.5
2016-May-28 07:29N 60°13' E 005°18'5 4.9
2016-May-28 06:33N 60°09' E 005°15'1 0.9
2016-May-28 05:33N 60°08' E 005°14'6 5.5
2016-May-28 04:33N 60°13' E 005°17'7 6.6
2016-May-28 03:33N 60°07' E 005°12'0 0.0
2016-May-28 02:33N 60°07' E 005°12'0 0.0
2016-May-28 01:33N 60°07' E 005°12'0 0.0
2016-May-28 00:33N 60°07' E 005°12'0 0.0
2016-May-27 23:33N 60°07' E 005°12'4 4.5
2016-May-27 22:33N 60°11' E 005°17'2 1.6
2016-May-27 21:16N 60°13' E 005°18'6 9.1
2016-May-27 20:33N 60°08' E 005°12'5 5.2
2016-May-27 19:34N 60°12' E 005°18'0 0.1
2016-May-27 18:34N 60°12' E 005°17'5 5.1
2016-May-27 17:33N 60°07' E 005°12'6 6.4
2016-May-27 16:33N 60°13' E 005°18'5 4.8
2016-May-27 15:33N 60°09' E 005°15'1 0.9
2016-May-27 14:33N 60°09' E 005°16'4 3.6
2016-May-27 13:25N 60°13' E 005°18'4 4.7
2016-May-27 12:33N 60°09' E 005°15'1 1.2
2016-May-27 11:33N 60°08' E 005°14'3 2.7
2016-May-27 10:33N 60°06' E 005°11'0 0.0
2016-May-27 09:33N 60°06' E 005°11'0 0.0
2016-May-27 08:33N 60°06' E 005°11'1 1.3
2016-May-27 07:33N 60°07' E 005°12'4 4.0
2016-May-27 06:33N 60°11' E 005°17'2 1.8
2016-May-27 05:33N 60°12' E 005°18'6 5.7
2016-May-27 04:33N 60°07' E 005°12'1 1.3
2016-May-27 03:33N 60°06' E 005°11'0 0.0
2016-May-27 02:33N 60°06' E 005°11'0 0.0
2016-May-27 01:33N 60°06' E 005°11'0 0.0
2016-May-27 00:33N 60°06' E 005°11'0 0.0
2016-May-26 23:24N 60°06' E 005°11'0 0.0
2016-May-26 22:24N 60°06' E 005°11'0 0.0
2016-May-26 21:27N 60°06' E 005°11'0 0.0
2016-May-26 20:33N 60°06' E 005°11'0 0.0
2016-May-26 19:27N 60°06' E 005°11'0 0.0
2016-May-26 18:30N 60°06' E 005°11'0 0.0
2016-May-26 17:30N 60°06' E 005°11'8 8.0
2016-May-26 16:31N 60°13' E 005°17'5 5.5
2016-May-26 15:33N 60°08' E 005°14'1 1.0
2016-May-26 14:33N 60°09' E 005°16'5 4.2
2016-May-26 13:29N 60°13' E 005°17'4 4.7
2016-May-26 12:33N 60°09' E 005°15'1 1.5
2016-May-26 11:33N 60°08' E 005°13'2 2.2
2016-May-26 10:33N 60°06' E 005°11'0 0.0
2016-May-26 09:33N 60°06' E 005°11'0 0.0
2016-May-26 08:33N 60°06' E 005°11'1 1.3
2016-May-26 07:33N 60°07' E 005°12'4 4.1
2016-May-26 06:33N 60°11' E 005°17'2 1.6
2016-May-26 05:33N 60°12' E 005°18'6 5.7
2016-May-26 04:33N 60°07' E 005°12'1 1.2
2016-May-26 03:31N 60°06' E 005°11'0 0.0
2016-May-26 02:28N 60°06' E 005°11'0 0.0
2016-May-26 01:28N 60°06' E 005°11'0 0.0
2016-May-26 00:28N 60°06' E 005°11'0 0.0
2016-May-25 23:28N 60°06' E 005°11'0 0.0
2016-May-25 22:31N 60°06' E 005°11'0 0.0
2016-May-25 21:31N 60°06' E 005°11'0 0.0
2016-May-25 20:31N 60°06' E 005°11'0 0.0
2016-May-25 19:31N 60°06' E 005°11'0 0.0
2016-May-25 18:31N 60°06' E 005°11'0 0.0
2016-May-25 17:31N 60°06' E 005°11'8 8.0
2016-May-25 16:33N 60°13' E 005°18'5 5.2
2016-May-25 15:33N 60°08' E 005°14'1 1.0
2016-May-25 14:33N 60°09' E 005°16'5 4.3
2016-May-25 13:31N 60°13' E 005°17'4 4.6
2016-May-25 12:33N 60°09' E 005°15'1 1.3
2016-May-25 11:33N 60°08' E 005°14'2 2.4
2016-May-25 10:33N 60°06' E 005°11'0 0.0
2016-May-25 09:33N 60°06' E 005°11'0 0.0
2016-May-25 08:33N 60°06' E 005°11'1 1.3
2016-May-25 07:33N 60°07' E 005°12'4 4.0
2016-May-25 06:33N 60°11' E 005°17'2 1.6
2016-May-25 05:33N 60°12' E 005°17'6 5.6
2016-May-25 04:33N 60°07' E 005°12'1 1.2
2016-May-25 03:32N 60°06' E 005°11'0 0.0
2016-May-25 02:32N 60°06' E 005°11'0 0.0
2016-May-25 01:32N 60°06' E 005°11'0 0.0
2016-May-25 00:32N 60°06' E 005°11'0 0.0
2016-May-24 23:32N 60°06' E 005°11'0 0.0
2016-May-24 22:32N 60°06' E 005°11'0 0.0
2016-May-24 21:23N 60°06' E 005°11'0 0.0
2016-May-24 20:26N 60°06' E 005°11'0 0.0
2016-May-24 19:26N 60°06' E 005°11'0 0.0
2016-May-24 18:26N 60°06' E 005°11'0 0.0
2016-May-24 17:26N 60°06' E 005°11'8 8.7
2016-May-24 16:33N 60°13' E 005°18'5 5.3
2016-May-24 15:33N 60°08' E 005°14'  

Dump ship's entire track history